createdAt,value
2019-01-17T00:00:47.681Z,1.80
2019-01-17T00:03:46.316Z,1.80
2019-01-17T00:06:44.948Z,1.80
2019-01-17T00:09:47.619Z,1.70
2019-01-17T00:12:47.165Z,1.70
2019-01-17T00:15:52.528Z,1.70
2019-01-17T00:18:52.212Z,1.70
2019-01-17T00:21:52.043Z,1.60
2019-01-17T00:24:49.908Z,1.50
2019-01-17T00:27:40.898Z,1.50
2019-01-17T00:30:43.148Z,1.50
2019-01-17T00:33:45.848Z,1.40
2019-01-17T00:36:46.619Z,1.40
2019-01-17T00:39:47.014Z,1.50
2019-01-17T00:42:47.605Z,1.60
2019-01-17T00:45:47.633Z,1.50
2019-01-17T00:48:35.975Z,1.40
2019-01-17T00:51:36.481Z,1.40
2019-01-17T01:03:20.641Z,1.40
2019-01-17T01:09:19.962Z,1.20
2019-01-17T01:12:20.236Z,1.20
2019-01-17T01:15:23.505Z,1.20
2019-01-17T01:18:29.704Z,1.20
2019-01-17T01:24:28.958Z,1.10
2019-01-17T01:27:30.691Z,1.00
2019-01-17T01:30:36.856Z,1.00
2019-01-17T01:33:36.821Z,1.00
2019-01-17T01:36:37.085Z,1.00
2019-01-17T01:39:26.432Z,1.00
2019-01-17T01:42:28.447Z,1.10
2019-01-17T01:45:28.431Z,1.10
2019-01-17T01:48:20.516Z,1.00
2019-01-17T01:51:23.448Z,1.00
2019-01-17T01:54:04.229Z,0.90
2019-01-17T01:56:45.277Z,1.00
2019-01-17T01:59:26.667Z,1.00
2019-01-17T02:02:07.212Z,1.00
2019-01-17T02:04:48.604Z,1.00
2019-01-17T02:07:29.659Z,0.90
2019-01-17T02:10:10.533Z,0.90
2019-01-17T02:12:51.308Z,0.90
2019-01-17T02:15:32.134Z,0.90
2019-01-17T02:18:13.361Z,1.00
2019-01-17T02:20:42.616Z,1.10
2019-01-17T02:23:31.049Z,1.10
2019-01-17T02:26:19.358Z,1.00
2019-01-17T02:29:07.693Z,1.00
2019-01-17T02:31:48.969Z,1.10
2019-01-17T02:34:30.251Z,1.10
2019-01-17T02:37:10.918Z,0.90
2019-01-17T02:39:51.440Z,0.80
2019-01-17T02:42:20.755Z,0.90
2019-01-17T02:50:38.390Z,0.90
2019-01-17T02:53:19.858Z,0.80
2019-01-17T02:56:00.404Z,0.80
2019-01-17T02:58:29.508Z,0.80
2019-01-17T03:01:17.767Z,0.60
2019-01-17T03:04:06.052Z,0.60
2019-01-17T03:06:54.423Z,0.60
2019-01-17T03:09:35.381Z,0.50
2019-01-17T03:12:16.223Z,0.40
2019-01-17T03:14:56.893Z,0.30
2019-01-17T03:17:37.382Z,0.40
2019-01-17T03:20:18.565Z,0.40
2019-01-17T03:22:59.658Z,0.40
2019-01-17T03:25:41.041Z,0.40
2019-01-17T03:28:10.236Z,0.40
2019-01-17T03:30:58.415Z,0.30
2019-01-17T03:33:39.164Z,0.30
2019-01-17T03:36:20.088Z,0.40
2019-01-17T03:39:01.000Z,0.40
2019-01-17T03:41:41.836Z,0.40
2019-01-17T03:44:22.629Z,0.30
2019-01-17T03:47:03.324Z,0.30
2019-01-17T03:49:44.542Z,0.30
2019-01-17T03:52:16.647Z,0.30
2019-01-17T03:55:05.069Z,0.30
2019-01-17T03:57:34.180Z,0.30
2019-01-17T04:00:22.494Z,0.20
2019-01-17T04:03:03.659Z,0.20
2019-01-17T04:05:45.070Z,0.20
2019-01-17T04:08:26.046Z,0.20
2019-01-17T04:11:06.887Z,0.20
2019-01-17T04:13:51.032Z,0.20
2019-01-17T04:16:20.305Z,0.20
2019-01-17T04:19:08.543Z,0.10
2019-01-17T04:21:56.806Z,0.10
2019-01-17T04:24:40.896Z,0.00
2019-01-17T04:27:22.160Z,0.00
2019-01-17T04:30:03.081Z,0.00
2019-01-17T04:32:32.183Z,0.00
2019-01-17T04:35:20.378Z,0.00
2019-01-17T04:38:08.685Z,-0.10
2019-01-17T04:40:49.929Z,-0.10
2019-01-17T04:43:30.453Z,-0.20
2019-01-17T04:46:11.237Z,-0.20
2019-01-17T04:48:51.937Z,-0.20
2019-01-17T04:51:32.898Z,-0.20
2019-01-17T04:54:14.199Z,-0.10
2019-01-17T04:56:55.072Z,-0.10
2019-01-17T04:59:36.248Z,-0.10
2019-01-17T05:02:17.169Z,-0.10
2019-01-17T05:04:58.196Z,-0.10
2019-01-17T05:07:38.609Z,-0.10
2019-01-17T05:10:08.207Z,-0.20
2019-01-17T05:12:56.628Z,-0.20
2019-01-17T05:15:37.065Z,-0.20
2019-01-17T05:18:18.260Z,-0.10
2019-01-17T05:20:59.621Z,-0.20
2019-01-17T05:23:40.459Z,-0.20
2019-01-17T05:26:21.004Z,-0.30
2019-01-17T05:29:01.655Z,-0.20
2019-01-17T05:31:42.941Z,-0.20
2019-01-17T05:34:12.269Z,-0.30
2019-01-17T05:37:00.516Z,-0.20
2019-01-17T05:39:41.790Z,-0.20
2019-01-17T05:42:22.535Z,-0.20
2019-01-17T05:45:03.439Z,-0.10
2019-01-17T05:47:44.412Z,-0.20
2019-01-17T05:50:25.311Z,-0.20
2019-01-17T05:53:06.552Z,-0.30
2019-01-17T05:55:47.516Z,-0.20
2019-01-17T05:58:28.344Z,-0.20
2019-01-17T06:01:08.801Z,-0.20
2019-01-17T06:03:49.424Z,-0.20
2019-01-17T06:06:33.172Z,-0.10
2019-01-17T06:09:13.417Z,-0.10
2019-01-17T06:11:54.223Z,-0.10
2019-01-17T06:14:35.026Z,-0.10
2019-01-17T06:17:16.099Z,-0.20
2019-01-17T06:19:56.628Z,-0.20
2019-01-17T06:22:37.775Z,-0.30
2019-01-17T06:25:18.622Z,-0.30
2019-01-17T06:28:00.001Z,-0.40
2019-01-17T06:30:40.722Z,-0.50
2019-01-17T06:33:21.732Z,-0.50
2019-01-17T06:36:02.535Z,-0.40
2019-01-17T06:38:43.845Z,-0.40
2019-01-17T06:41:24.834Z,-0.30
2019-01-17T06:44:05.811Z,-0.10
2019-01-17T06:46:46.702Z,-0.10
2019-01-17T06:49:27.517Z,0.00
2019-01-17T06:52:07.985Z,0.10
2019-01-17T06:54:48.850Z,0.20
2019-01-17T06:57:29.871Z,0.50
2019-01-17T07:00:11.915Z,0.60
2019-01-17T07:02:52.825Z,0.60
2019-01-17T07:05:33.902Z,0.70
2019-01-17T07:08:14.528Z,0.80
2019-01-17T07:10:55.614Z,0.90
2019-01-17T07:13:36.469Z,1.10
2019-01-17T07:16:17.454Z,1.30
2019-01-17T07:18:58.382Z,1.30
2019-01-17T07:21:39.786Z,1.60
2019-01-17T07:24:20.916Z,1.80
2019-01-17T07:27:01.867Z,2.00
2019-01-17T07:29:42.496Z,2.20
2019-01-17T07:32:23.381Z,2.40
2019-01-17T07:35:04.440Z,2.80
2019-01-17T07:37:45.177Z,3.10
2019-01-17T07:40:26.380Z,3.20
2019-01-17T07:43:06.905Z,3.10
2019-01-17T07:45:47.950Z,3.00
2019-01-17T07:48:28.709Z,2.70
2019-01-17T07:51:09.471Z,2.30
2019-01-17T07:53:50.297Z,2.00
2019-01-17T07:56:31.154Z,1.90
2019-01-17T07:59:11.934Z,1.70
2019-01-17T08:01:52.817Z,1.60
2019-01-17T08:04:33.520Z,1.60
2019-01-17T08:07:14.280Z,1.50
2019-01-17T08:09:55.046Z,1.50
2019-01-17T08:12:36.251Z,1.70
2019-01-17T08:15:16.991Z,1.80
2019-01-17T08:17:57.964Z,1.90
2019-01-17T08:20:39.002Z,1.90
2019-01-17T08:23:19.931Z,2.00
2019-01-17T08:26:00.589Z,2.20
2019-01-17T08:28:41.472Z,2.30
2019-01-17T08:31:22.309Z,2.30
2019-01-17T08:34:03.102Z,2.40
2019-01-17T08:36:43.560Z,2.60
2019-01-17T08:39:24.557Z,2.80
2019-01-17T08:42:05.601Z,2.90
2019-01-17T08:44:51.454Z,3.10
2019-01-17T08:47:32.294Z,3.10
2019-01-17T08:50:12.934Z,3.50
2019-01-17T08:52:54.075Z,3.70
2019-01-17T08:55:34.681Z,4.10
2019-01-17T08:58:15.597Z,4.10
2019-01-17T09:00:56.561Z,4.10
2019-01-17T09:03:37.017Z,4.00
2019-01-17T09:08:49.546Z,3.60
2019-01-17T09:11:37.698Z,3.60
2019-01-17T09:14:18.094Z,3.60
2019-01-17T09:16:58.751Z,3.60
2019-01-17T09:19:39.898Z,3.50
2019-01-17T09:22:20.915Z,3.60
2019-01-17T09:25:02.134Z,3.60
2019-01-17T09:27:31.189Z,3.60
2019-01-17T09:30:19.522Z,3.60
2019-01-17T09:33:07.699Z,3.60
2019-01-17T09:35:48.698Z,3.60
2019-01-17T09:38:29.317Z,3.50
2019-01-17T09:41:10.187Z,3.60
2019-01-17T09:43:51.156Z,3.80
2019-01-17T09:46:31.942Z,3.80
2019-01-17T09:49:13.256Z,3.90
2019-01-17T09:51:54.175Z,4.00
2019-01-17T09:54:34.897Z,4.10
2019-01-17T09:57:15.820Z,4.20
2019-01-17T09:59:56.747Z,4.40
2019-01-17T10:02:37.972Z,4.60
2019-01-17T10:05:18.670Z,4.60
2019-01-17T10:07:59.938Z,4.70
2019-01-17T10:10:40.486Z,4.80
2019-01-17T10:13:22.416Z,4.90
2019-01-17T10:16:02.915Z,5.10
2019-01-17T10:18:43.478Z,5.40
2019-01-17T10:21:24.663Z,5.60
2019-01-17T10:24:05.467Z,5.80
2019-01-17T10:26:46.554Z,6.00
2019-01-17T10:29:27.548Z,6.30
2019-01-17T10:32:08.812Z,6.50
2019-01-17T10:34:49.508Z,6.80
2019-01-17T10:37:30.791Z,7.00
2019-01-17T10:40:11.940Z,7.20
2019-01-17T10:42:52.521Z,7.40
2019-01-17T10:45:33.672Z,7.70
2019-01-17T10:48:14.574Z,7.90
2019-01-17T10:50:55.229Z,8.10
2019-01-17T10:53:36.414Z,8.10
2019-01-17T10:56:16.895Z,8.30
2019-01-17T10:58:57.949Z,8.40
2019-01-17T11:01:38.804Z,8.40
2019-01-17T11:04:19.553Z,8.50
2019-01-17T11:07:10.379Z,8.50
2019-01-17T11:10:17.645Z,8.50
2019-01-17T11:12:59.056Z,8.40
2019-01-17T11:15:39.813Z,8.30
2019-01-17T11:18:20.687Z,8.10
2019-01-17T11:21:01.559Z,7.90
2019-01-17T11:23:42.379Z,7.80
2019-01-17T11:26:22.998Z,7.70
2019-01-17T11:29:03.829Z,7.70
2019-01-17T11:31:45.320Z,7.60
2019-01-17T11:34:52.628Z,7.60
2019-01-17T11:37:59.897Z,7.50
2019-01-17T11:40:41.167Z,7.40
2019-01-17T11:43:21.656Z,7.30
2019-01-17T11:46:02.171Z,7.30
2019-01-17T11:48:43.381Z,7.30
2019-01-17T11:51:50.779Z,7.30
2019-01-17T11:54:31.482Z,7.20
2019-01-17T11:57:12.186Z,7.20
2019-01-17T11:59:52.938Z,7.20
2019-01-17T12:02:39.131Z,7.20
2019-01-17T12:05:16.252Z,7.20
2019-01-17T12:07:57.285Z,7.20
2019-01-17T12:10:38.206Z,7.10
2019-01-17T12:13:19.799Z,7.10
2019-01-17T12:16:01.090Z,7.10
2019-01-17T12:18:42.067Z,7.10
2019-01-17T12:21:22.916Z,7.20
2019-01-17T12:24:03.700Z,7.20
2019-01-17T12:26:47.566Z,7.20
2019-01-17T12:29:27.994Z,7.20
2019-01-17T12:32:08.718Z,7.20
2019-01-17T12:34:49.748Z,7.20
2019-01-17T12:37:30.832Z,7.30
2019-01-17T12:40:11.876Z,7.30
2019-01-17T12:42:52.879Z,7.30
2019-01-17T12:45:33.935Z,7.20
2019-01-17T12:48:14.962Z,7.20
2019-01-17T12:50:56.144Z,7.20
2019-01-17T12:53:37.150Z,7.20
2019-01-17T12:56:17.992Z,7.20
2019-01-17T12:58:58.842Z,7.20
2019-01-17T13:01:39.485Z,7.20
2019-01-17T13:04:20.161Z,7.20
2019-01-17T13:07:01.013Z,7.20
2019-01-17T13:09:41.906Z,7.20
2019-01-17T13:12:22.682Z,7.30
2019-01-17T13:15:03.668Z,7.30
2019-01-17T13:17:44.733Z,7.30
2019-01-17T13:20:25.446Z,7.30
2019-01-17T13:23:06.285Z,7.20
2019-01-17T13:25:47.318Z,7.10
2019-01-17T13:28:27.754Z,7.10
2019-01-17T13:31:08.739Z,7.00
2019-01-17T13:33:49.580Z,7.00
2019-01-17T13:36:30.401Z,6.90
2019-01-17T13:39:11.478Z,6.80
2019-01-17T13:41:52.126Z,6.60
2019-01-17T13:44:32.952Z,6.50
2019-01-17T13:47:13.428Z,6.40
2019-01-17T13:49:54.136Z,6.30
2019-01-17T13:52:34.926Z,6.10
2019-01-17T13:57:54.087Z,6.00
2019-01-17T14:00:35.168Z,5.80
2019-01-17T14:03:15.934Z,5.90
2019-01-17T14:08:37.032Z,5.80
2019-01-17T14:11:17.741Z,5.80
2019-01-17T14:13:58.342Z,5.80
2019-01-17T14:16:39.162Z,5.70
2019-01-17T14:19:24.435Z,5.60
2019-01-17T14:22:05.126Z,5.60
2019-01-17T14:24:46.374Z,5.50
2019-01-17T14:27:26.853Z,5.40
2019-01-17T14:30:07.826Z,5.30
2019-01-17T14:32:48.278Z,5.30
2019-01-17T14:35:29.037Z,5.20
2019-01-17T14:38:10.105Z,5.10
2019-01-17T14:40:50.898Z,5.00
2019-01-17T14:43:31.940Z,5.00
2019-01-17T14:48:51.827Z,4.90
2019-01-17T14:51:32.475Z,4.80
2019-01-17T14:54:13.634Z,4.80
2019-01-17T14:56:54.548Z,4.70
2019-01-17T14:59:35.562Z,4.70
2019-01-17T15:02:16.517Z,4.60
2019-01-17T15:04:57.262Z,4.60
2019-01-17T15:07:38.468Z,4.60
2019-01-17T15:10:19.516Z,4.60
2019-01-17T15:13:00.462Z,4.60
2019-01-17T15:15:41.064Z,4.60
2019-01-17T15:18:22.057Z,4.60
2019-01-17T15:21:02.681Z,4.60
2019-01-17T15:23:43.521Z,4.50
2019-01-17T15:26:24.625Z,4.40
2019-01-17T15:29:05.511Z,4.40
2019-01-17T15:31:46.755Z,4.50
2019-01-17T15:34:27.417Z,4.50
2019-01-17T15:37:08.295Z,4.40
2019-01-17T15:39:49.223Z,4.40
2019-01-17T15:42:31.050Z,4.40
2019-01-17T15:45:12.410Z,4.30
2019-01-17T15:47:41.715Z,4.40
2019-01-17T15:50:30.034Z,4.40
2019-01-17T15:53:18.198Z,4.30
2019-01-17T15:55:59.448Z,4.30
2019-01-17T16:01:20.441Z,4.40
2019-01-17T16:04:00.944Z,4.40
2019-01-17T16:06:41.449Z,4.30
2019-01-17T16:09:22.956Z,4.30
2019-01-17T16:12:03.484Z,4.20
2019-01-17T16:14:44.411Z,4.20
2019-01-17T16:17:25.254Z,4.10
2019-01-17T16:20:06.149Z,4.10
2019-01-17T16:22:47.205Z,4.10
2019-01-17T16:25:28.250Z,4.00
2019-01-17T16:27:57.208Z,4.00
2019-01-17T16:30:45.324Z,3.90
2019-01-17T16:33:26.336Z,3.90
2019-01-17T16:36:06.883Z,3.90
2019-01-17T16:38:49.283Z,3.90
2019-01-17T16:41:30.774Z,3.90
2019-01-17T16:44:11.272Z,3.90
2019-01-17T16:46:52.582Z,3.80
2019-01-17T16:49:34.159Z,3.80
2019-01-17T16:52:14.877Z,3.80
2019-01-17T16:54:55.972Z,3.80
2019-01-17T16:57:36.620Z,3.80
2019-01-17T17:00:17.867Z,3.80
2019-01-17T17:02:58.701Z,3.80
2019-01-17T17:05:41.054Z,3.80
2019-01-17T17:08:22.460Z,3.70
2019-01-17T17:11:02.948Z,3.70
2019-01-17T17:13:43.777Z,3.70
2019-01-17T17:16:24.893Z,3.70
2019-01-17T17:19:06.011Z,3.70
2019-01-17T17:21:47.304Z,3.70
2019-01-17T17:24:28.221Z,3.60
2019-01-17T17:36:02.213Z,3.60
2019-01-17T17:38:43.352Z,3.60
2019-01-17T17:41:24.710Z,3.60
2019-01-17T17:44:05.444Z,3.60
2019-01-17T17:46:48.626Z,3.60
2019-01-17T17:49:29.783Z,3.60
2019-01-17T17:52:12.412Z,3.60
2019-01-17T17:58:02.120Z,3.60
2019-01-17T18:00:43.736Z,3.60
2019-01-17T18:03:28.873Z,3.50
2019-01-17T18:06:10.302Z,3.50
2019-01-17T18:08:51.216Z,3.60
2019-01-17T18:11:32.168Z,3.60
2019-01-17T18:14:13.136Z,3.50
2019-01-17T18:16:54.125Z,3.50
2019-01-17T18:19:35.133Z,3.50
2019-01-17T18:22:16.458Z,3.50
2019-01-17T18:24:57.803Z,3.40
2019-01-17T18:27:38.395Z,3.30
2019-01-17T18:30:19.611Z,3.20
2019-01-17T18:33:00.168Z,3.10
2019-01-17T18:35:29.354Z,3.10
2019-01-17T18:38:17.607Z,3.00
2019-01-17T18:40:58.408Z,3.00
2019-01-17T18:43:39.364Z,3.00
2019-01-17T18:46:19.017Z,3.00
2019-01-17T18:49:00.130Z,3.00
2019-01-17T18:51:41.035Z,3.00
2019-01-17T18:54:22.235Z,3.00
2019-01-17T18:57:03.362Z,3.10
2019-01-17T18:59:44.872Z,3.10
2019-01-17T19:02:14.038Z,3.10
2019-01-17T19:05:02.300Z,3.10
2019-01-17T19:07:50.523Z,3.20
2019-01-17T19:10:36.462Z,3.20
2019-01-17T19:13:17.764Z,3.20
2019-01-17T19:15:46.833Z,3.20
2019-01-17T19:18:35.139Z,3.20
2019-01-17T19:21:15.807Z,3.20
2019-01-17T19:23:57.287Z,3.20
2019-01-17T19:26:38.887Z,3.10
2019-01-17T19:29:20.189Z,3.20
2019-01-17T19:32:01.708Z,3.30
2019-01-17T19:34:43.607Z,3.30
2019-01-17T19:37:24.600Z,3.30
2019-01-17T19:40:05.350Z,3.30
2019-01-17T19:45:28.975Z,3.30
2019-01-17T19:48:10.028Z,3.20
2019-01-17T19:50:51.119Z,3.10
2019-01-17T19:56:18.743Z,3.00
2019-01-17T19:59:00.414Z,2.90
2019-01-17T20:01:42.241Z,2.80
2019-01-17T20:04:23.029Z,2.80
2019-01-17T20:07:03.228Z,2.70
2019-01-17T20:09:44.759Z,2.80
2019-01-17T20:12:25.972Z,2.80
2019-01-17T20:15:08.477Z,2.80
2019-01-17T20:17:49.013Z,2.80
2019-01-17T20:23:09.818Z,2.80
2019-01-17T20:25:53.052Z,2.80
2019-01-17T20:31:13.113Z,2.70
2019-01-17T20:33:42.222Z,2.70
2019-01-17T20:36:30.507Z,2.70
2019-01-17T20:39:18.797Z,2.80
2019-01-17T20:41:59.293Z,2.80
2019-01-17T20:44:39.965Z,2.80
2019-01-17T20:47:24.814Z,2.80
2019-01-17T20:50:05.783Z,2.70
2019-01-17T20:52:50.148Z,2.70
2019-01-17T20:58:10.248Z,2.70
2019-01-17T21:03:35.295Z,2.80
2019-01-17T21:09:06.431Z,2.70
2019-01-17T21:11:48.193Z,2.70
2019-01-17T21:14:29.403Z,2.70
2019-01-17T21:17:09.983Z,2.60
2019-01-17T21:19:51.312Z,2.60
2019-01-17T21:22:32.149Z,2.60
2019-01-17T21:27:51.844Z,2.60
2019-01-17T21:30:33.256Z,2.60
2019-01-17T21:33:14.629Z,2.60
2019-01-17T21:35:56.027Z,2.60
2019-01-17T21:38:25.158Z,2.60
2019-01-17T21:40:54.449Z,2.60
2019-01-17T21:43:42.914Z,2.50
2019-01-17T21:46:31.299Z,2.50
2019-01-17T21:49:17.899Z,2.50
2019-01-17T21:51:58.536Z,2.50
2019-01-17T21:54:39.471Z,2.40
2019-01-17T21:57:21.005Z,2.40
2019-01-17T22:00:05.866Z,2.40
2019-01-17T22:02:46.852Z,2.40
2019-01-17T22:05:28.072Z,2.30
2019-01-17T22:08:08.903Z,2.40
2019-01-17T22:13:34.512Z,2.40
2019-01-17T22:16:15.336Z,2.30
2019-01-17T22:18:56.145Z,2.30
2019-01-17T22:21:37.433Z,2.30
2019-01-17T22:24:18.723Z,2.20
2019-01-17T22:27:00.146Z,2.20
2019-01-17T22:29:41.196Z,2.10
2019-01-17T22:32:23.037Z,2.10
2019-01-17T22:35:03.593Z,2.00
2019-01-17T22:37:32.713Z,2.00
2019-01-17T22:40:21.082Z,2.00
2019-01-17T22:43:10.216Z,2.00
2019-01-17T22:45:50.818Z,2.00
2019-01-17T22:48:32.177Z,1.80
2019-01-17T22:51:13.282Z,1.80
2019-01-17T22:53:54.209Z,1.70
2019-01-17T22:56:35.029Z,1.70
2019-01-17T22:59:16.113Z,1.60
2019-01-17T23:01:57.194Z,1.60
2019-01-17T23:04:38.437Z,1.50
2019-01-17T23:07:19.030Z,1.50
2019-01-17T23:09:59.646Z,1.50
2019-01-17T23:12:41.004Z,1.60
2019-01-17T23:15:10.168Z,1.70
2019-01-17T23:17:58.420Z,1.80
2019-01-17T23:20:39.027Z,1.80
2019-01-17T23:23:20.055Z,1.80
2019-01-17T23:26:00.706Z,1.70
2019-01-17T23:28:41.390Z,1.70
2019-01-17T23:31:21.862Z,1.70
2019-01-17T23:34:02.644Z,1.70
2019-01-17T23:36:43.958Z,1.70
2019-01-17T23:39:25.210Z,1.60
2019-01-17T23:42:05.714Z,1.50
2019-01-17T23:44:46.455Z,1.40
2019-01-17T23:47:27.992Z,1.40
2019-01-17T23:50:09.283Z,1.40
2019-01-17T23:52:49.918Z,1.30
2019-01-17T23:55:19.164Z,1.30
2019-01-17T23:58:08.197Z,1.30
